Randenbroek, Netherlands
Current Conditions -  °F | °C
As of 11:55 AM on Sunday 26 Oct 2014 (Local Time) from EHDL Reporting Station
Overcast Overcast  
Wind Chill: 57°   Ceiling: 4200
Heat Index: 57°   Visibility: 6mi
Dew Point: 50°   Wind: 10mph
Humidity: 77%   Direction: 200°SSW
Pressure: 30.24"   Gusts: NA
Location:  52.15°N, 5.4°E
Report Text: EHDL 260955Z AUTO 20009KT 9999 OVC042 14/10 Q1024 BLU
Loading
Personal Weather Stations






























Interactive Weather Map
Tropical Storm Tracking
New forecast layout! Learn more

10-Day Weather Forecast

Advertisements
Track Severe Weather on mobile